Time;durP1;ratioP1;P1;durP2;ratioP2;P2;SDS_P1;SDS_P2;PMS_P1;PMS_P2;Temp;Humidity;BMP_temperature;BMP_pressure;BME280_temperature;BME280_humidity;BME280_pressure;Samples;Min_cycle;Max_cycle;Signal;HPM_P1;HPM_P2
2023/11/15 06:02:36;;;;;;;;;;;;;;;;;;4977905;23;19926;-41
2023/11/15 06:05:02;;;;;;;;;;;;;;;;;;4951407;29;19934;-41
2023/11/15 06:07:29;;;;;;;;;;;;;;;;;;4950835;29;19911;-44
2023/11/15 06:09:55;;;;;;;;;;;;;;;;;;4951274;29;20417;-44
2023/11/15 06:12:22;;;;;;;;;;;;;;;;;;4951046;29;19978;-44
2023/11/15 06:14:48;;;;;;;;;;;;;;;;;;4951425;29;20013;-44
2023/11/15 06:17:14;;;;;;;;;;;;;;;;;;4951036;29;20348;-45
2023/11/15 06:19:40;;;;;;;;;;;;;;;;;;4951507;29;20401;-44
2023/11/15 06:22:05;;;;;;;;;;;;;;;;;;4950949;29;20406;-45
2023/11/15 06:24:32;;;;;;;;;;;;;;;;;;4951123;29;20362;-45
2023/11/15 06:26:58;;;;;;;;;;;;;;;;;;4950904;29;19910;-45
2023/11/15 06:29:24;;;;;;;;;;;;;;;;;;4951027;29;19917;-45
2023/11/15 06:31:50;;;;;;;;;;;;;;;;;;4950841;29;19918;-43
2023/11/15 06:34:16;;;;;;;;;;;;;;;;;;4951181;29;19911;-45
2023/11/15 06:36:43;;;;;;;;;;;;;;;;;;4951233;29;19933;-45
2023/11/15 06:39:10;;;;;;;;;;;;;;;;;;4950962;29;19911;-45
2023/11/15 06:41:38;;;;;;;;;;;;;;;;;;4950991;29;19910;-44
2023/11/15 06:44:05;;;;;;;;;;;;;;;;;;4950939;29;20116;-44
2023/11/15 06:46:31;;;;;;;;;;;;;;;;;;4950796;29;19917;-45
2023/11/15 06:48:58;;;;;;;;;;;;;;;;;;4950716;29;19934;-46
2023/11/15 06:51:24;;;;;;;;;;;;;;;;;;4950826;29;20371;-46
2023/11/15 06:53:53;;;;;;;;;;;;;;;;;;4950943;29;19965;-44
2023/11/15 06:56:18;;;;;;;;;;;;;;;;;;4950811;29;20446;-45
2023/11/15 06:58:44;;;;;;;;;;;;;;;;;;4955801;28;20002;-45
2023/11/15 07:01:11;;;;;;;;;;;;;;;;;;4959318;28;20059;-44
2023/11/15 07:03:38;;;;;;;;;;;;;;;;;;4948635;29;19921;-44
2023/11/15 07:06:05;;;;;;;;;;;;;;;;;;4952059;29;19910;-44
2023/11/15 07:08:31;;;;;;;;;;;;;;;;;;4951831;29;20287;-45
2023/11/15 07:11:01;;;;;;;;;;;;;;;;;;4953052;28;19910;-44
2023/11/15 07:13:27;;;;;;;;;;;;;;;;;;4955253;29;19910;-45
2023/11/15 07:15:53;;;;;;;;;;;;;;;;;;4955468;29;19917;-44
2023/11/15 07:18:21;;;;;;;;;;;;;;;;;;4951424;28;20407;-44
2023/11/15 07:20:49;;;;;;;;;;;;;;;;;;4952400;29;20339;-45
2023/11/15 07:23:15;;;;;;;;;;;;;;;;;;4955008;28;20395;-45
2023/11/15 07:25:41;;;;;;;;;;;;;;;;;;4961782;28;19910;-44
2023/11/15 07:28:08;;;;;;;;;;;;;;;;;;4972482;28;19964;-43
2023/11/15 07:30:34;;;;;;;;;;;;;;;;;;4957682;28;19914;-44
2023/11/15 07:33:00;;;;;;;;;;;;;;;;;;4952489;29;20021;-43
2023/11/15 07:35:26;;;;;;;;;;;;;;;;;;4952465;29;20001;-45
2023/11/15 07:37:52;;;;;;;;;;;;;;;;;;4968223;28;19914;-43
2023/11/15 07:40:18;;;;;;;;;;;;;;;;;;4952743;29;19970;-46
2023/11/15 07:42:45;;;;;;;;;;;;;;;;;;4966867;28;19949;-44
2023/11/15 07:45:11;;;;;;;;;;;;;;;;;;4953538;29;19910;-44
2023/11/15 07:47:37;;;;;;;;;;;;;;;;;;4952729;29;19918;-46
2023/11/15 07:50:04;;;;;;;;;;;;;;;;;;4968199;28;19910;-44
2023/11/15 07:52:30;;;;;;;;;;;;;;;;;;4950053;28;20289;-44
2023/11/15 07:54:56;;;;;;;;;;;;;;;;;;4952830;28;19922;-43
2023/11/15 07:57:22;;;;;;;;;;;;;;;;;;4951077;29;19914;-43
2023/11/15 07:59:48;;;;;;;;;;;;;;;;;;4952736;29;19911;-44
2023/11/15 08:02:14;;;;;;;;;;;;;;;;;;4947410;29;19918;-44
2023/11/15 08:04:40;;;;;;;;;;;;;;;;;;4953306;29;20008;-44
2023/11/15 08:07:05;;;;;;;;;;;;;;;;;;4951901;28;19930;-44
2023/11/15 08:09:32;;;;;;;;;;;;;;;;;;4952519;29;19918;-43
2023/11/15 08:11:58;;;;;;;;;;;;;;;;;;4967586;28;19926;-44
2023/11/15 08:14:25;;;;;;;;;;;;;;;;;;4959302;28;19914;-43
2023/11/15 08:16:51;;;;;;;;;;;;;;;;;;4956004;28;19914;-43
2023/11/15 08:19:18;;;;;;;;;;;;;;;;;;4952605;28;19965;-44
2023/11/15 08:21:44;;;;;;;;;;;;;;;;;;4949654;28;19915;-44
2023/11/15 08:24:13;;;;;;;;;;;;;;;;;;4951002;29;20008;-45
2023/11/15 08:26:39;;;;;;;;;;;;;;;;;;4952730;29;19918;-44
2023/11/15 08:29:05;;;;;;;;;;;;;;;;;;4952155;29;19918;-44
2023/11/15 08:31:33;;;;;;;;;;;;;;;;;;4965963;28;20005;-43
2023/11/15 08:33:58;;;;;;;;;;;;;;;;;;4951172;29;19921;-43
2023/11/15 08:36:25;;;;;;;;;;;;;;;;;;4952646;29;20303;-43
2023/11/15 08:38:52;;;;;;;;;;;;;;;;;;4953484;29;19911;-44
2023/11/15 08:41:18;;;;;;;;;;;;;;;;;;4952972;29;19911;-43
2023/11/15 08:43:43;;;;;;;;;;;;;;;;;;4950523;29;19969;-43
2023/11/15 08:46:09;;;;;;;;;;;;;;;;;;4948198;29;20841;-43
2023/11/15 08:48:35;;;;;;;;;;;;;;;;;;4951907;29;19922;-43
2023/11/15 08:51:04;;;;;;;;;;;;;;;;;;4952081;29;20402;-45
2023/11/15 08:53:30;;;;;;;;;;;;;;;;;;4952458;29;20050;-44
2023/11/15 08:55:56;;;;;;;;;;;;;;;;;;4952716;29;20012;-44
2023/11/15 08:58:27;;;;;;;;;;;;;;;;;;4952502;29;19915;-43
2023/11/15 09:00:53;;;;;;;;;;;;;;;;;;4952989;29;19919;-44
2023/11/15 09:03:19;;;;;;;;;;;;;;;;;;4951616;29;20302;-45
2023/11/15 09:05:46;;;;;;;;;;;;;;;;;;4951438;28;19918;-43
2023/11/15 09:08:13;;;;;;;;;;;;;;;;;;4951496;28;19969;-44
2023/11/15 09:10:39;;;;;;;;;;;;;;;;;;4951687;29;20009;-44
2023/11/15 09:13:08;;;;;;;;;;;;;;;;;;4950793;29;20014;-45
2023/11/15 09:15:34;;;;;;;;;;;;;;;;;;4955359;28;20005;-43
2023/11/15 09:18:04;;;;;;;;;;;;;;;;;;5554660;23;19934;-49
2023/11/15 09:20:32;;;;;;;;;;;;;;;;;;4975810;28;19925;-46
2023/11/15 09:22:58;;;;;;;;;;;;;;;;;;4968437;28;19914;-48
2023/11/15 09:25:26;;;;;;;;;;;;;;;;;;4970538;28;19910;-47
2023/11/15 09:27:52;;;;;;;;;;;;;;;;;;4970165;28;19956;-49
2023/11/15 09:30:18;;;;;;;;;;;;;;;;;;4970207;28;20391;-49
2023/11/15 09:32:44;;;;;;;;;;;;;;;;;;4969133;28;19930;-50
2023/11/15 09:35:10;;;;;;;;;;;;;;;;;;4969170;28;19917;-47
2023/11/15 09:37:36;;;;;;;;;;;;;;;;;;4970298;28;19965;-49
2023/11/15 09:40:03;;;;;;;;;;;;;;;;;;4968299;28;19964;-50
2023/11/15 09:42:29;;;;;;;;;;;;;;;;;;4969118;28;19914;-46
2023/11/15 09:44:55;;;;;;;;;;;;;;;;;;4969474;28;19917;-49
2023/11/15 09:47:20;;;;;;;;;;;;;;;;;;4968552;28;19906;-47
2023/11/15 09:49:46;;;;;;;;;;;;;;;;;;4967500;28;19921;-47
2023/11/15 09:52:13;;;;;;;;;;;;;;;;;;4967737;28;20065;-51
2023/11/15 09:54:39;;;;;;;;;;;;;;;;;;4967998;28;20008;-50
2023/11/15 09:57:06;;;;;;;;;;;;;;;;;;4967852;28;20046;-50
2023/11/15 09:59:32;;;;;;;;;;;;;;;;;;4968218;28;19921;-46
2023/11/15 10:01:59;;;;;;;;;;;;;;;;;;4968200;28;20009;-51
2023/11/15 10:04:25;;;;;;;;;;;;;;;;;;4967629;28;19936;-49
2023/11/15 10:06:58;;;;;;;;;;;;;;;;;;4969582;28;19921;-48
2023/11/15 10:09:23;;;;;;;;;;;;;;;;;;4979115;28;20523;-48
2023/11/15 10:11:50;;;;;;;;;;;;;;;;;;4973254;28;19925;-51
2023/11/15 10:14:16;;;;;;;;;;;;;;;;;;4987152;28;19916;-50
2023/11/15 10:16:42;;;;;;;;;;;;;;;;;;4987227;28;20254;-51
2023/11/15 10:19:08;;;;;;;;;;;;;;;;;;4976458;28;20009;-51
2023/11/15 10:21:35;;;;;;;;;;;;;;;;;;4968929;28;20087;-51
2023/11/15 10:24:01;;;;;;;;;;;;;;;;;;4967157;28;20021;-52
2023/11/15 10:26:28;;;;;;;;;;;;;;;;;;4950437;28;20001;-49
2023/11/15 10:28:54;;;;;;;;;;;;;;;;;;4970885;28;19921;-47
2023/11/15 10:31:21;;;;;;;;;;;;;;;;;;4978609;28;19910;-48
2023/11/15 10:33:49;;;;;;;;;;;;;;;;;;4972731;28;20413;-52
2023/11/15 10:36:15;;;;;;;;;;;;;;;;;;4983530;28;19916;-49
2023/11/15 10:38:43;;;;;;;;;;;;;;;;;;4971985;28;19957;-49
2023/11/15 10:41:09;;;;;;;;;;;;;;;;;;4968170;28;19910;-48
2023/11/15 10:43:35;;;;;;;;;;;;;;;;;;4968254;28;19976;-51
2023/11/15 10:46:02;;;;;;;;;;;;;;;;;;4968490;28;19925;-49
2023/11/15 10:48:28;;;;;;;;;;;;;;;;;;4971539;28;19914;-49
2023/11/15 10:50:57;;;;;;;;;;;;;;;;;;4982917;28;19914;-50
2023/11/15 10:53:24;;;;;;;;;;;;;;;;;;4970797;28;19926;-50
2023/11/15 10:55:49;;;;;;;;;;;;;;;;;;4971619;28;19910;-47
2023/11/15 10:58:16;;;;;;;;;;;;;;;;;;4971387;28;19914;-50
2023/11/15 11:00:43;;;;;;;;;;;;;;;;;;4970693;28;19945;-49
2023/11/15 11:03:09;;;;;;;;;;;;;;;;;;4972060;28;19933;-49
2023/11/15 11:05:35;;;;;;;;;;;;;;;;;;4971062;28;20351;-51
2023/11/15 11:08:02;;;;;;;;;;;;;;;;;;4971067;28;19973;-50
2023/11/15 11:10:28;;;;;;;;;;;;;;;;;;4971126;28;19914;-48
2023/11/15 11:12:56;;;;;;;;;;;;;;;;;;4978053;28;20208;-51
2023/11/15 11:15:24;;;;;;;;;;;;;;;;;;4991663;28;19953;-50
2023/11/15 11:17:50;;;;;;;;;;;;;;;;;;4982006;28;20352;-48
2023/11/15 11:20:17;;;;;;;;;;;;;;;;;;4971384;28;20013;-50
2023/11/15 11:22:43;;;;;;;;;;;;;;;;;;4971312;28;19921;-48
2023/11/15 11:25:10;;;;;;;;;;;;;;;;;;4971692;28;19914;-48
2023/11/15 11:27:36;;;;;;;;;;;;;;;;;;4971982;28;19910;-49
2023/11/15 11:30:05;;;;;;;;;;;;;;;;;;4971469;28;19911;-49
2023/11/15 11:32:31;;;;;;;;;;;;;;;;;;4971493;28;19922;-48
2023/11/15 11:34:58;;;;;;;;;;;;;;;;;;4971494;28;19916;-47
2023/11/15 11:37:24;;;;;;;;;;;;;;;;;;4975006;28;19914;-48
2023/11/15 11:39:50;;;;;;;;;;;;;;;;;;4969927;28;19922;-50
2023/11/15 11:42:16;;;;;;;;;;;;;;;;;;4953497;28;19945;-47
2023/11/15 11:44:41;;;;;;;;;;;;;;;;;;4971348;28;19968;-48
2023/11/15 11:47:11;;;;;;;;;;;;;;;;;;4971240;28;20328;-50
2023/11/15 11:49:37;;;;;;;;;;;;;;;;;;4971124;28;20386;-51
2023/11/15 11:52:03;;;;;;;;;;;;;;;;;;4970989;28;19918;-50
2023/11/15 11:54:29;;;;;;;;;;;;;;;;;;4971088;28;19910;-48
2023/11/15 11:56:55;;;;;;;;;;;;;;;;;;4970275;28;20073;-49
2023/11/15 11:59:20;;;;;;;;;;;;;;;;;;4971600;28;19910;-50
2023/11/15 12:01:46;;;;;;;;;;;;;;;;;;4971482;28;20310;-51
2023/11/15 12:04:12;;;;;;;;;;;;;;;;;;4970797;28;19932;-46
2023/11/15 12:06:38;;;;;;;;;;;;;;;;;;4971025;28;19918;-52
2023/11/15 12:09:04;;;;;;;;;;;;;;;;;;4970931;28;19917;-51
2023/11/15 12:11:30;;;;;;;;;;;;;;;;;;4970911;28;19965;-49
2023/11/15 12:13:57;;;;;;;;;;;;;;;;;;4970950;28;20302;-49
2023/11/15 12:16:22;;;;;;;;;;;;;;;;;;4970602;28;19916;-49
2023/11/15 12:18:49;;;;;;;;;;;;;;;;;;4972711;28;19925;-51
2023/11/15 12:21:14;;;;;;;;;;;;;;;;;;4971179;28;19914;-49
2023/11/15 12:23:40;;;;;;;;;;;;;;;;;;4971964;28;19965;-50
2023/11/15 12:26:06;;;;;;;;;;;;;;;;;;4971702;28;20525;-49
2023/11/15 12:28:32;;;;;;;;;;;;;;;;;;4969929;28;19921;-48
2023/11/15 12:30:58;;;;;;;;;;;;;;;;;;4970402;28;19917;-49
2023/11/15 12:33:24;;;;;;;;;;;;;;;;;;4970338;28;19925;-47
2023/11/15 12:35:51;;;;;;;;;;;;;;;;;;4971279;28;20434;-47
2023/11/15 12:38:18;;;;;;;;;;;;;;;;;;4969886;28;19914;-49
2023/11/15 12:40:44;;;;;;;;;;;;;;;;;;4970227;28;20401;-49
2023/11/15 12:43:10;;;;;;;;;;;;;;;;;;4952906;28;19910;-48
2023/11/15 12:45:36;;;;;;;;;;;;;;;;;;4970226;28;19937;-50
2023/11/15 12:48:02;;;;;;;;;;;;;;;;;;4969974;28;19910;-47
2023/11/15 12:50:28;;;;;;;;;;;;;;;;;;4970219;28;20383;-51
2023/11/15 12:52:54;;;;;;;;;;;;;;;;;;4969530;28;20005;-48
2023/11/15 12:55:20;;;;;;;;;;;;;;;;;;4970882;28;19965;-49
2023/11/15 12:57:46;;;;;;;;;;;;;;;;;;4969810;28;19918;-48
2023/11/15 13:00:12;;;;;;;;;;;;;;;;;;4970007;28;20294;-48
2023/11/15 13:02:38;;;;;;;;;;;;;;;;;;4969057;28;19914;-50
2023/11/15 13:05:05;;;;;;;;;;;;;;;;;;4971235;28;19918;-51
2023/11/15 13:07:32;;;;;;;;;;;;;;;;;;4970417;28;20365;-50
2023/11/15 13:09:58;;;;;;;;;;;;;;;;;;4971074;28;20336;-51
2023/11/15 13:12:24;;;;;;;;;;;;;;;;;;4953361;28;20012;-50
2023/11/15 13:14:50;;;;;;;;;;;;;;;;;;4971456;28;19910;-50
2023/11/15 13:17:17;;;;;;;;;;;;;;;;;;4975103;28;19993;-48
2023/11/15 13:19:43;;;;;;;;;;;;;;;;;;4951447;29;20418;-51
2023/11/15 13:22:09;;;;;;;;;;;;;;;;;;4951493;29;19918;-47
2023/11/15 13:24:37;;;;;;;;;;;;;;;;;;4963299;28;19955;-49
2023/11/15 13:27:02;;;;;;;;;;;;;;;;;;4979262;28;20394;-50
2023/11/15 13:29:28;;;;;;;;;;;;;;;;;;4989226;28;19909;-51
2023/11/15 13:31:55;;;;;;;;;;;;;;;;;;4990363;28;19914;-49
2023/11/15 13:34:21;;;;;;;;;;;;;;;;;;4990716;28;20060;-50
2023/11/15 13:36:47;;;;;;;;;;;;;;;;;;4983017;28;19913;-49
2023/11/15 13:39:14;;;;;;;;;;;;;;;;;;4972166;28;19917;-51
2023/11/15 13:41:40;;;;;;;;;;;;;;;;;;4968800;28;19961;-49
2023/11/15 13:44:07;;;;;;;;;;;;;;;;;;4983983;28;19914;-50
2023/11/15 13:46:35;;;;;;;;;;;;;;;;;;4969189;28;19917;-50
2023/11/15 13:49:03;;;;;;;;;;;;;;;;;;4969477;28;19914;-49
2023/11/15 13:51:30;;;;;;;;;;;;;;;;;;4969077;28;19976;-49
2023/11/15 13:53:56;;;;;;;;;;;;;;;;;;4971792;28;20445;-50
2023/11/15 13:56:22;;;;;;;;;;;;;;;;;;4968433;28;19922;-50
2023/11/15 13:58:48;;;;;;;;;;;;;;;;;;4968986;28;19910;-50
2023/11/15 14:01:14;;;;;;;;;;;;;;;;;;4968936;28;19917;-50
2023/11/15 14:03:39;;;;;;;;;;;;;;;;;;4969100;28;19910;-49
2023/11/15 14:06:05;;;;;;;;;;;;;;;;;;4967996;28;19915;-51
2023/11/15 14:08:36;;;;;;;;;;;;;;;;;;4968306;28;19989;-49
2023/11/15 14:11:06;;;;;;;;;;;;;;;;;;4968963;28;19914;-49
2023/11/15 14:13:32;;;;;;;;;;;;;;;;;;4968589;28;19983;-49
2023/11/15 14:15:58;;;;;;;;;;;;;;;;;;4969028;28;19922;-51
2023/11/15 14:18:24;;;;;;;;;;;;;;;;;;4969143;28;19917;-50
2023/11/15 14:20:52;;;;;;;;;;;;;;;;;;4971572;28;19910;-51
2023/11/15 14:23:18;;;;;;;;;;;;;;;;;;4975166;28;20302;-48
2023/11/15 14:25:44;;;;;;;;;;;;;;;;;;4973906;28;19918;-48
2023/11/15 14:28:10;;;;;;;;;;;;;;;;;;4974930;28;19977;-47
2023/11/15 14:30:37;;;;;;;;;;;;;;;;;;4975053;28;19996;-48
2023/11/15 14:33:04;;;;;;;;;;;;;;;;;;4974946;28;20415;-51
2023/11/15 14:35:30;;;;;;;;;;;;;;;;;;4974688;28;19958;-48
2023/11/15 14:37:56;;;;;;;;;;;;;;;;;;4975355;28;19949;-48
2023/11/15 14:40:22;;;;;;;;;;;;;;;;;;4974929;28;19981;-49
2023/11/15 14:42:50;;;;;;;;;;;;;;;;;;4974801;28;19911;-49
2023/11/15 14:45:16;;;;;;;;;;;;;;;;;;4974969;28;19968;-47
2023/11/15 14:47:45;;;;;;;;;;;;;;;;;;4974144;28;19957;-47
2023/11/15 14:50:12;;;;;;;;;;;;;;;;;;4975131;28;19920;-47
2023/11/15 14:52:48;;;;;;;;;;;;;;;;;;4974669;28;19914;-49
2023/11/15 14:55:13;;;;;;;;;;;;;;;;;;4974024;28;20005;-51
2023/11/15 14:57:41;;;;;;;;;;;;;;;;;;4975027;28;19953;-48
2023/11/15 15:00:07;;;;;;;;;;;;;;;;;;4974963;28;19913;-48
2023/11/15 15:02:33;;;;;;;;;;;;;;;;;;4974063;28;19914;-50
2023/11/15 15:05:00;;;;;;;;;;;;;;;;;;4974784;28;19914;-47
2023/11/15 15:07:26;;;;;;;;;;;;;;;;;;4975270;28;20373;-49
2023/11/15 15:09:52;;;;;;;;;;;;;;;;;;4975157;28;19917;-51
2023/11/15 15:12:20;;;;;;;;;;;;;;;;;;4973942;28;19929;-51
2023/11/15 15:14:46;;;;;;;;;;;;;;;;;;4974830;28;19910;-49
2023/11/15 15:17:13;;;;;;;;;;;;;;;;;;4974788;28;20316;-51
2023/11/15 15:19:39;;;;;;;;;;;;;;;;;;4975150;28;19918;-49
2023/11/15 15:22:05;;;;;;;;;;;;;;;;;;4974749;28;20000;-49
2023/11/15 15:24:31;;;;;;;;;;;;;;;;;;4974753;28;19910;-50
2023/11/15 15:26:57;;;;;;;;;;;;;;;;;;4975013;28;20032;-50
2023/11/15 15:29:23;;;;;;;;;;;;;;;;;;4974501;28;20419;-51
2023/11/15 15:31:49;;;;;;;;;;;;;;;;;;4973076;28;19968;-48
2023/11/15 15:34:16;;;;;;;;;;;;;;;;;;4971654;28;20295;-48
2023/11/15 15:36:42;;;;;;;;;;;;;;;;;;4971578;28;19914;-48
2023/11/15 15:39:07;;;;;;;;;;;;;;;;;;4970482;28;20009;-51
2023/11/15 15:41:37;;;;;;;;;;;;;;;;;;4970744;28;20333;-48
2023/11/15 15:44:03;;;;;;;;;;;;;;;;;;4971646;28;19942;-51
2023/11/15 15:46:32;;;;;;;;;;;;;;;;;;4972173;28;19910;-49
2023/11/15 15:48:58;;;;;;;;;;;;;;;;;;4971724;28;20382;-48
2023/11/15 15:51:24;;;;;;;;;;;;;;;;;;4971131;28;19993;-49
2023/11/15 15:53:50;;;;;;;;;;;;;;;;;;4971223;28;20387;-51
2023/11/15 15:56:15;;;;;;;;;;;;;;;;;;4972473;28;19914;-50
2023/11/15 15:58:41;;;;;;;;;;;;;;;;;;4970030;28;20334;-48
2023/11/15 16:01:08;;;;;;;;;;;;;;;;;;4971034;28;20016;-48
2023/11/15 16:03:34;;;;;;;;;;;;;;;;;;4971006;28;19973;-49
2023/11/15 16:05:59;;;;;;;;;;;;;;;;;;4972012;28;19914;-46
2023/11/15 16:08:26;;;;;;;;;;;;;;;;;;4967994;28;20391;-48
2023/11/15 16:10:52;;;;;;;;;;;;;;;;;;4968917;28;20375;-47
2023/11/15 16:13:18;;;;;;;;;;;;;;;;;;4970830;28;19915;-51
2023/11/15 16:15:44;;;;;;;;;;;;;;;;;;4969802;28;20287;-50
2023/11/15 16:18:10;;;;;;;;;;;;;;;;;;4968302;28;20405;-48
2023/11/15 16:20:37;;;;;;;;;;;;;;;;;;4970796;28;20001;-48
2023/11/15 16:23:03;;;;;;;;;;;;;;;;;;4971960;28;19936;-49
2023/11/15 16:25:29;;;;;;;;;;;;;;;;;;4959743;28;19910;-50
2023/11/15 16:27:55;;;;;;;;;;;;;;;;;;4970798;28;20397;-50
2023/11/15 16:30:21;;;;;;;;;;;;;;;;;;4979564;28;19914;-50
2023/11/15 16:32:47;;;;;;;;;;;;;;;;;;4968590;28;19918;-50
2023/11/15 16:35:13;;;;;;;;;;;;;;;;;;4970742;28;19918;-48
2023/11/15 16:37:42;;;;;;;;;;;;;;;;;;4971151;28;20418;-47
2023/11/15 16:40:10;;;;;;;;;;;;;;;;;;4970386;28;20379;-48
2023/11/15 16:42:37;;;;;;;;;;;;;;;;;;4970357;28;19918;-50
2023/11/15 16:45:06;;;;;;;;;;;;;;;;;;4971760;28;20374;-47
2023/11/15 16:47:31;;;;;;;;;;;;;;;;;;4972537;28;20294;-50
2023/11/15 16:49:58;;;;;;;;;;;;;;;;;;4972226;28;19910;-49
2023/11/15 16:52:24;;;;;;;;;;;;;;;;;;4970395;28;19946;-47
2023/11/15 16:54:50;;;;;;;;;;;;;;;;;;4970461;28;19949;-50
2023/11/15 16:57:16;;;;;;;;;;;;;;;;;;4966622;28;19914;-48
2023/11/15 16:59:46;;;;;;;;;;;;;;;;;;4971958;28;20005;-50
2023/11/15 17:02:12;;;;;;;;;;;;;;;;;;4971885;28;19922;-47
2023/11/15 17:04:38;;;;;;;;;;;;;;;;;;4971283;28;19914;-51
2023/11/15 17:07:04;;;;;;;;;;;;;;;;;;4970474;28;20294;-46
2023/11/15 17:09:30;;;;;;;;;;;;;;;;;;4972040;28;20001;-49
2023/11/15 17:11:56;;;;;;;;;;;;;;;;;;4966304;28;19925;-48
2023/11/15 17:14:22;;;;;;;;;;;;;;;;;;4967405;28;19918;-47
2023/11/15 17:16:48;;;;;;;;;;;;;;;;;;4969185;28;19937;-47
2023/11/15 17:19:14;;;;;;;;;;;;;;;;;;4970744;28;19929;-48
2023/11/15 17:21:43;;;;;;;;;;;;;;;;;;4971500;28;19910;-49
2023/11/15 17:24:09;;;;;;;;;;;;;;;;;;4970543;28;19917;-48
2023/11/15 17:26:35;;;;;;;;;;;;;;;;;;4971581;28;19910;-46
2023/11/15 17:29:01;;;;;;;;;;;;;;;;;;4971127;28;20009;-47
2023/11/15 17:31:28;;;;;;;;;;;;;;;;;;4971392;28;19914;-49
2023/11/15 17:33:55;;;;;;;;;;;;;;;;;;4972229;28;19910;-47
2023/11/15 17:36:22;;;;;;;;;;;;;;;;;;4971792;28;19941;-48
2023/11/15 17:38:48;;;;;;;;;;;;;;;;;;4971006;28;19910;-47
2023/11/15 17:41:15;;;;;;;;;;;;;;;;;;4967175;28;20256;-48
2023/11/15 17:43:41;;;;;;;;;;;;;;;;;;4970299;28;19969;-50
2023/11/15 17:46:07;;;;;;;;;;;;;;;;;;4967796;28;19916;-47
2023/11/15 17:48:33;;;;;;;;;;;;;;;;;;4969228;28;19936;-48
2023/11/15 17:51:03;;;;;;;;;;;;;;;;;;4971058;28;19910;-49
2023/11/15 17:53:29;;;;;;;;;;;;;;;;;;4971214;28;19934;-47
2023/11/15 17:55:54;;;;;;;;;;;;;;;;;;4968382;28;19993;-48
2023/11/15 17:58:20;;;;;;;;;;;;;;;;;;4968184;28;19915;-49
2023/11/15 18:00:46;;;;;;;;;;;;;;;;;;4969925;28;19914;-51
2023/11/15 18:03:12;;;;;;;;;;;;;;;;;;4967043;28;19914;-51
2023/11/15 18:05:38;;;;;;;;;;;;;;;;;;4970559;28;19918;-48
2023/11/15 18:08:04;;;;;;;;;;;;;;;;;;4968918;28;19914;-49
2023/11/15 18:10:30;;;;;;;;;;;;;;;;;;4970510;28;20263;-47
2023/11/15 18:12:56;;;;;;;;;;;;;;;;;;4969326;28;19925;-50
2023/11/15 18:15:22;;;;;;;;;;;;;;;;;;4971348;28;20346;-47
2023/11/15 18:17:48;;;;;;;;;;;;;;;;;;4969711;28;19965;-48
2023/11/15 18:20:15;;;;;;;;;;;;;;;;;;4970431;28;20528;-49
2023/11/15 18:22:41;;;;;;;;;;;;;;;;;;4969983;28;19922;-50
2023/11/15 18:25:09;;;;;;;;;;;;;;;;;;4970434;28;20287;-47
2023/11/15 18:27:36;;;;;;;;;;;;;;;;;;4969725;28;19993;-50
2023/11/15 18:30:03;;;;;;;;;;;;;;;;;;4970406;28;19969;-48
2023/11/15 18:32:29;;;;;;;;;;;;;;;;;;4969569;28;19922;-46
2023/11/15 18:34:55;;;;;;;;;;;;;;;;;;4971080;28;20371;-48
2023/11/15 18:37:20;;;;;;;;;;;;;;;;;;4970268;28;19917;-48
2023/11/15 18:39:47;;;;;;;;;;;;;;;;;;4968537;28;19969;-47
2023/11/15 18:42:14;;;;;;;;;;;;;;;;;;4970277;28;20607;-49
2023/11/15 18:44:41;;;;;;;;;;;;;;;;;;4970466;28;20018;-49
2023/11/15 18:47:07;;;;;;;;;;;;;;;;;;4970172;28;19910;-47
2023/11/15 18:49:33;;;;;;;;;;;;;;;;;;4983168;28;20641;-49
2023/11/15 18:51:59;;;;;;;;;;;;;;;;;;4969927;28;20000;-46
2023/11/15 18:54:26;;;;;;;;;;;;;;;;;;4970895;28;20029;-49
2023/11/15 18:56:52;;;;;;;;;;;;;;;;;;4970144;28;19918;-47
2023/11/15 18:59:18;;;;;;;;;;;;;;;;;;4969323;28;19914;-49
2023/11/15 19:01:46;;;;;;;;;;;;;;;;;;4969920;28;19910;-48
2023/11/15 19:04:12;;;;;;;;;;;;;;;;;;4970268;28;19910;-51
2023/11/15 19:06:38;;;;;;;;;;;;;;;;;;4970893;28;19918;-50
2023/11/15 19:09:10;;;;;;;;;;;;;;;;;;4968482;28;20353;-50
2023/11/15 19:11:36;;;;;;;;;;;;;;;;;;4953957;29;19919;-47
2023/11/15 19:14:05;;;;;;;;;;;;;;;;;;4957914;28;19977;-48
2023/11/15 19:16:31;;;;;;;;;;;;;;;;;;4972064;28;19914;-49
2023/11/15 19:18:57;;;;;;;;;;;;;;;;;;4968312;28;20352;-50
2023/11/15 19:21:26;;;;;;;;;;;;;;;;;;4971939;28;20006;-49
2023/11/15 19:23:52;;;;;;;;;;;;;;;;;;4970881;28;19914;-47
2023/11/15 19:26:18;;;;;;;;;;;;;;;;;;4981689;28;19916;-48
2023/11/15 19:28:45;;;;;;;;;;;;;;;;;;4979607;28;19914;-48
2023/11/15 19:31:11;;;;;;;;;;;;;;;;;;4965909;28;19958;-49
2023/11/15 19:33:36;;;;;;;;;;;;;;;;;;4966214;28;20061;-48
2023/11/15 19:36:03;;;;;;;;;;;;;;;;;;4968248;28;19921;-47
2023/11/15 19:38:28;;;;;;;;;;;;;;;;;;4967710;28;19925;-46
2023/11/15 19:40:54;;;;;;;;;;;;;;;;;;4968457;28;20387;-48
2023/11/15 19:43:21;;;;;;;;;;;;;;;;;;4968518;28;19915;-50
2023/11/15 19:45:52;;;;;;;;;;;;;;;;;;4966574;28;20597;-48
2023/11/15 19:48:18;;;;;;;;;;;;;;;;;;4968427;28;19923;-46
2023/11/15 19:50:44;;;;;;;;;;;;;;;;;;4970309;28;19914;-46
2023/11/15 19:53:11;;;;;;;;;;;;;;;;;;4967885;28;19918;-47
2023/11/15 19:55:38;;;;;;;;;;;;;;;;;;4971662;28;19918;-50
2023/11/15 19:58:04;;;;;;;;;;;;;;;;;;4970541;28;19914;-47
2023/11/15 20:00:30;;;;;;;;;;;;;;;;;;4968331;28;19915;-48
2023/11/15 20:02:57;;;;;;;;;;;;;;;;;;4966724;28;19921;-50
2023/11/15 20:05:23;;;;;;;;;;;;;;;;;;4968504;28;19914;-50
2023/11/15 20:07:49;;;;;;;;;;;;;;;;;;4974199;28;19937;-46
2023/11/15 20:10:15;;;;;;;;;;;;;;;;;;4969801;28;19915;-48
2023/11/15 20:12:41;;;;;;;;;;;;;;;;;;4967331;28;19922;-48
2023/11/15 20:15:09;;;;;;;;;;;;;;;;;;4954235;28;19910;-50
2023/11/15 20:17:35;;;;;;;;;;;;;;;;;;4952671;28;19914;-48
2023/11/15 20:20:03;;;;;;;;;;;;;;;;;;4950107;28;19933;-47
2023/11/15 20:22:29;;;;;;;;;;;;;;;;;;4979546;28;19922;-49
2023/11/15 20:24:55;;;;;;;;;;;;;;;;;;4977166;28;19965;-51
2023/11/15 20:27:21;;;;;;;;;;;;;;;;;;4982381;28;20133;-49
2023/11/15 20:29:47;;;;;;;;;;;;;;;;;;4968043;28;19914;-47
2023/11/15 20:32:13;;;;;;;;;;;;;;;;;;4952792;28;19922;-50
2023/11/15 20:34:39;;;;;;;;;;;;;;;;;;4984049;28;19918;-48
2023/11/15 20:37:05;;;;;;;;;;;;;;;;;;4986451;28;20038;-49
2023/11/15 20:39:31;;;;;;;;;;;;;;;;;;4968871;28;19918;-51
2023/11/15 20:41:58;;;;;;;;;;;;;;;;;;4968567;28;19914;-48
2023/11/15 20:44:24;;;;;;;;;;;;;;;;;;4967231;28;19914;-47
2023/11/15 20:46:49;;;;;;;;;;;;;;;;;;4968866;28;19914;-47
2023/11/15 20:49:15;;;;;;;;;;;;;;;;;;4951482;28;19981;-48
2023/11/15 20:51:42;;;;;;;;;;;;;;;;;;4968634;28;19925;-51
2023/11/15 20:54:08;;;;;;;;;;;;;;;;;;4952654;28;20429;-47
2023/11/15 20:56:35;;;;;;;;;;;;;;;;;;4970676;28;20005;-47
2023/11/15 20:59:01;;;;;;;;;;;;;;;;;;4970207;28;19918;-48
2023/11/15 21:01:28;;;;;;;;;;;;;;;;;;4966563;28;20303;-46
2023/11/15 21:03:54;;;;;;;;;;;;;;;;;;4953057;28;19918;-46
2023/11/15 21:06:20;;;;;;;;;;;;;;;;;;4984799;28;20275;-47
2023/11/15 21:08:47;;;;;;;;;;;;;;;;;;4983058;28;20409;-49
2023/11/15 21:11:13;;;;;;;;;;;;;;;;;;4969009;28;19969;-50
2023/11/15 21:13:41;;;;;;;;;;;;;;;;;;4967759;28;19925;-49
2023/11/15 21:16:07;;;;;;;;;;;;;;;;;;4969663;28;19937;-50
2023/11/15 21:18:33;;;;;;;;;;;;;;;;;;4968449;28;19945;-49
2023/11/15 21:20:58;;;;;;;;;;;;;;;;;;4967603;28;20009;-48
2023/11/15 21:23:25;;;;;;;;;;;;;;;;;;4969268;28;19937;-50
2023/11/15 21:25:51;;;;;;;;;;;;;;;;;;4969883;28;20332;-48
2023/11/15 21:28:16;;;;;;;;;;;;;;;;;;4969046;28;19914;-47
2023/11/15 21:30:42;;;;;;;;;;;;;;;;;;4968561;28;19922;-48
2023/11/15 21:33:09;;;;;;;;;;;;;;;;;;4982382;28;20000;-50
2023/11/15 21:35:37;;;;;;;;;;;;;;;;;;4969355;28;19910;-49
2023/11/15 21:38:03;;;;;;;;;;;;;;;;;;4969348;28;19910;-51
2023/11/15 21:40:29;;;;;;;;;;;;;;;;;;4969486;28;20005;-50
2023/11/15 21:42:56;;;;;;;;;;;;;;;;;;4969294;28;20068;-50
2023/11/15 21:45:23;;;;;;;;;;;;;;;;;;4951216;28;19925;-50
2023/11/15 21:47:49;;;;;;;;;;;;;;;;;;4968816;28;20342;-50
2023/11/15 21:50:15;;;;;;;;;;;;;;;;;;4967003;28;19922;-48
2023/11/15 21:52:41;;;;;;;;;;;;;;;;;;4968690;28;20044;-50
2023/11/15 21:55:07;;;;;;;;;;;;;;;;;;4966116;28;19922;-50
2023/11/15 21:57:34;;;;;;;;;;;;;;;;;;4966083;28;20435;-47
2023/11/15 22:00:00;;;;;;;;;;;;;;;;;;4980906;28;19914;-47
2023/11/15 22:02:27;;;;;;;;;;;;;;;;;;4970002;28;19918;-49
2023/11/15 22:04:53;;;;;;;;;;;;;;;;;;4969462;28;19910;-49
2023/11/15 22:07:19;;;;;;;;;;;;;;;;;;4972282;28;19969;-50
2023/11/15 22:09:45;;;;;;;;;;;;;;;;;;4968567;28;19914;-51
2023/11/15 22:12:11;;;;;;;;;;;;;;;;;;4968336;28;19922;-49
2023/11/15 22:14:37;;;;;;;;;;;;;;;;;;4968977;28;19910;-50
2023/11/15 22:17:04;;;;;;;;;;;;;;;;;;4968503;28;20358;-46
2023/11/15 22:19:30;;;;;;;;;;;;;;;;;;4967739;28;20380;-50
2023/11/15 22:21:56;;;;;;;;;;;;;;;;;;4968280;28;19961;-48
2023/11/15 22:24:22;;;;;;;;;;;;;;;;;;4968583;28;20378;-49
2023/11/15 22:26:48;;;;;;;;;;;;;;;;;;4969671;28;19910;-48
2023/11/15 22:29:14;;;;;;;;;;;;;;;;;;4968128;28;19941;-48
2023/11/15 22:31:41;;;;;;;;;;;;;;;;;;4982790;28;20028;-51
2023/11/15 22:34:07;;;;;;;;;;;;;;;;;;4968917;28;19910;-48
2023/11/15 22:36:32;;;;;;;;;;;;;;;;;;4968693;28;20362;-50
2023/11/15 22:39:00;;;;;;;;;;;;;;;;;;4967880;28;19914;-49
2023/11/15 22:41:26;;;;;;;;;;;;;;;;;;4968280;28;19968;-49